NCAR-RAP Real-Time Weather Data

Output produced by METARs form (26 September 2017  14:32 UTC)
found at http://weather.rap.ucar.edu/surface/
 
Conditions at: KFMY observed 26 September 2017  13:53 UTC
Temperature: 28.3°C (83°F)
Dewpoint: 25.0°C (77°F) [RH = 82%]
Pressure (altimeter): 29.93 inches Hg (1013.6 mb)
[Sea-level pressure: 1013.6 mb]
Winds: from the E (100 degrees) at 5 MPH (4 knots; 2.1 m/s)
Visibility: 10 or more miles (16+ km)
Ceiling: at least 12,000 feet AGL
Clouds: sky clear below 12,000 feet AGL
Present Weather: no significant weather observed at this time
KFMY 261353Z 10004KT 10SM CLR 28/25 A2993 RMK AO2 RAB16E42 SLP136 P0001 T02830250

Conditions at: KFMY observed 26 September 2017  12:53 UTC
Temperature: 26.1°C (79°F)
Dewpoint: 25.0°C (77°F) [RH = 94%]
Pressure (altimeter): 29.92 inches Hg (1013.3 mb)
[Sea-level pressure: 1013.4 mb]
Winds: calm
Visibility: 10 or more miles (16+ km)
Ceiling: at least 12,000 feet AGL
Clouds: sky clear below 12,000 feet AGL
Present Weather: no significant weather observed at this time
KFMY 261253Z 00000KT 10SM CLR 26/25 A2992 RMK AO2 SLP134 T02610250

Conditions at: KFMY observed 26 September 2017  11:53 UTC
Temperature: 25.6°C (78°F)
Dewpoint: 23.9°C (75°F) [RH = 90%]
Pressure (altimeter): 29.90 inches Hg (1012.6 mb)
[Sea-level pressure: 1012.7 mb]
Winds: calm
Visibility: 10 or more miles (16+ km)
Ceiling: at least 12,000 feet AGL
Clouds: sky clear below 12,000 feet AGL
Present Weather: no significant weather observed at this time
KFMY 261153Z 00000KT 10SM CLR 26/24 A2990 RMK AO2 SLP127 T02560239 10272 20256 53017

Conditions at: KFMY observed 26 September 2017  10:53 UTC
Temperature: 25.6°C (78°F)
Dewpoint: 24.4°C (76°F) [RH = 93%]
Pressure (altimeter): 29.88 inches Hg (1011.9 mb)
[Sea-level pressure: 1012.0 mb]
Winds: calm
Visibility: 10 or more miles (16+ km)
Ceiling: at least 12,000 feet AGL
Clouds: sky clear below 12,000 feet AGL
Present Weather: no significant weather observed at this time
KFMY 261053Z 00000KT 10SM CLR 26/24 A2988 RMK AO2 SLP120 T02560244

Conditions at: KFMY observed 26 September 2017  09:53 UTC
Temperature: 26.1°C (79°F)
Dewpoint: 24.4°C (76°F) [RH = 90%]
Pressure (altimeter): 29.87 inches Hg (1011.6 mb)
[Sea-level pressure: 1011.6 mb]
Winds: from the NNW (340 degrees) at 3 MPH (3 knots; 1.6 m/s)
Visibility: 10 or more miles (16+ km)
Ceiling: at least 12,000 feet AGL
Clouds: sky clear below 12,000 feet AGL
Present Weather: automated observation with no human augmentation;
there may or may not be significant weather present at this time
KFMY 260953Z AUTO 34003KT 10SM CLR 26/24 A2987 RMK AO2 SLP116 T02610244

Conditions at: KFMY observed 26 September 2017  08:53 UTC
Temperature: 26.7°C (80°F)
Dewpoint: 25.6°C (78°F) [RH = 94%]
Pressure (altimeter): 29.85 inches Hg (1010.9 mb)
[Sea-level pressure: 1011.0 mb]
Winds: from the N (350 degrees) at 5 MPH (4 knots; 2.1 m/s)
Visibility: 10 or more miles (16+ km)
Ceiling: at least 12,000 feet AGL
Clouds: sky clear below 12,000 feet AGL
Present Weather: automated observation with no human augmentation;
there may or may not be significant weather present at this time
KFMY 260853Z AUTO 35004KT 10SM CLR 27/26 A2985 RMK AO2 LTG DSNT S SLP110 T02670256 56009

Conditions at: KFMY observed 26 September 2017  07:53 UTC
Temperature: 26.7°C (80°F)
Dewpoint: 25.6°C (78°F) [RH = 94%]
Pressure (altimeter): 29.85 inches Hg (1010.9 mb)
[Sea-level pressure: 1011.1 mb]
Winds: from the N (350 degrees) at 6 MPH (5 knots; 2.6 m/s)
Visibility: 10 or more miles (16+ km)
Ceiling: at least 12,000 feet AGL
Clouds: sky clear below 12,000 feet AGL
Present Weather: automated observation with no human augmentation;
there may or may not be significant weather present at this time
KFMY 260753Z AUTO 35005KT 10SM CLR 27/26 A2985 RMK AO2 LTG DSNT S SLP111 T02670256

Conditions at: KFMY observed 26 September 2017  06:53 UTC
Temperature: 27.2°C (81°F)
Dewpoint: 26.1°C (79°F) [RH = 94%]
Pressure (altimeter): 29.87 inches Hg (1011.6 mb)
[Sea-level pressure: 1011.7 mb]
Winds: from the N (350 degrees) at 5 MPH (4 knots; 2.1 m/s)
Visibility: 10 or more miles (16+ km)
Ceiling: at least 12,000 feet AGL
Clouds: sky clear below 12,000 feet AGL
Present Weather: automated observation with no human augmentation;
there may or may not be significant weather present at this time
KFMY 260653Z AUTO 35004KT 10SM CLR 27/26 A2987 RMK AO2 SLP117 T02720261

Conditions at: KFMY observed 26 September 2017  05:53 UTC
Temperature: 27.2°C (81°F)
Dewpoint: 25.6°C (78°F) [RH = 91%]
Pressure (altimeter): 29.88 inches Hg (1011.9 mb)
[Sea-level pressure: 1011.9 mb]
Winds: from the NW (320 degrees) at 3 MPH (3 knots; 1.6 m/s)
Visibility: 10 or more miles (16+ km)
Ceiling: at least 12,000 feet AGL
Clouds: sky clear below 12,000 feet AGL
Present Weather: automated observation with no human augmentation;
there may or may not be significant weather present at this time
KFMY 260553Z AUTO 32003KT 10SM CLR 27/26 A2988 RMK AO2 SLP119 T02720256 10289 20272 55001

Conditions at: KFMY observed 26 September 2017  04:53 UTC
Temperature: 27.8°C (82°F)
Dewpoint: 25.6°C (78°F) [RH = 88%]
Pressure (altimeter): 29.87 inches Hg (1011.6 mb)
[Sea-level pressure: 1011.8 mb]
Winds: from the NW (310 degrees) at 3 MPH (3 knots; 1.6 m/s)
Visibility: 10 or more miles (16+ km)
Ceiling: at least 12,000 feet AGL
Clouds: few clouds at 5500 feet AGL
Present Weather: automated observation with no human augmentation;
there may or may not be significant weather present at this time
KFMY 260453Z AUTO 31003KT 10SM FEW055 28/26 A2987 RMK AO2 SLP118 T02780256 403280250

Conditions at: KFMY observed 26 September 2017  03:53 UTC
Temperature: 27.8°C (82°F)
Dewpoint: 25.6°C (78°F) [RH = 88%]
Pressure (altimeter): 29.88 inches Hg (1011.9 mb)
[Sea-level pressure: 1012.0 mb]
Winds: calm
Visibility: 10 or more miles (16+ km)
Ceiling: at least 12,000 feet AGL
Clouds: sky clear below 12,000 feet AGL
Present Weather: automated observation with no human augmentation;
there may or may not be significant weather present at this time
KFMY 260353Z AUTO 00000KT 10SM CLR 28/26 A2988 RMK AO2 SLP120 T02780256

Conditions at: KFMY observed 26 September 2017  02:53 UTC
Temperature: 27.8°C (82°F)
Dewpoint: 25.6°C (78°F) [RH = 88%]
Pressure (altimeter): 29.88 inches Hg (1011.9 mb)
[Sea-level pressure: 1012.0 mb]
Winds: calm
Visibility: 10 or more miles (16+ km)
Ceiling: at least 12,000 feet AGL
Clouds: sky clear below 12,000 feet AGL
Present Weather: automated observation with no human augmentation;
there may or may not be significant weather present at this time
KFMY 260253Z AUTO 00000KT 10SM CLR 28/26 A2988 RMK AO2 SLP120 T02780256 51014

Conditions at: KFMY observed 26 September 2017  01:53 UTC
Temperature: 28.3°C (83°F)
Dewpoint: 25.6°C (78°F) [RH = 85%]
Pressure (altimeter): 29.87 inches Hg (1011.6 mb)
[Sea-level pressure: 1011.8 mb]
Winds: from the NW (320 degrees) at 6 MPH (5 knots; 2.6 m/s)
Visibility: 10 or more miles (16+ km)
Ceiling: at least 12,000 feet AGL
Clouds: sky clear below 12,000 feet AGL
Present Weather: no significant weather observed at this time
KFMY 260153Z 32005KT 10SM CLR 28/26 A2987 RMK AO2 SLP118 T02830256

Conditions at: KFMY observed 26 September 2017  00:53 UTC
Temperature: 28.3°C (83°F)
Dewpoint: 25.6°C (78°F) [RH = 85%]
Pressure (altimeter): 29.85 inches Hg (1010.9 mb)
[Sea-level pressure: 1011.1 mb]
Winds: from the W (280 degrees) at 5 MPH (4 knots; 2.1 m/s)
Visibility: 10 or more miles (16+ km)
Ceiling: at least 12,000 feet AGL
Clouds: sky clear below 12,000 feet AGL
Present Weather: no significant weather observed at this time
KFMY 260053Z 28004KT 10SM CLR 28/26 A2985 RMK AO2 SLP111 T02830256

Conditions at: KFMY observed 25 September 2017  23:53 UTC
Temperature: 28.3°C (83°F)
Dewpoint: 25.0°C (77°F) [RH = 82%]
Pressure (altimeter): 29.84 inches Hg (1010.6 mb)
[Sea-level pressure: 1010.7 mb]
Winds: from the W (260 degrees) at 6 MPH (5 knots; 2.6 m/s)
Visibility: 10 or more miles (16+ km)
Ceiling: at least 12,000 feet AGL
Clouds: sky clear below 12,000 feet AGL
Present Weather: no significant weather observed at this time
KFMY 252353Z 26005KT 10SM CLR 28/25 A2984 RMK AO2 LTG DSNT N SLP107 60000 T02830250 10328 20283 51009

Conditions at: KFMY observed 25 September 2017  22:53 UTC
Temperature: 29.4°C (85°F)
Dewpoint: 25.6°C (78°F) [RH = 80%]
Pressure (altimeter): 29.83 inches Hg (1010.2 mb)
[Sea-level pressure: 1010.3 mb]
Winds: from the W (260 degrees) at 8 MPH (7 knots; 3.6 m/s)
Visibility: 10 or more miles (16+ km)
Ceiling: at least 12,000 feet AGL
Clouds: sky clear below 12,000 feet AGL
Present Weather: no significant weather observed at this time
KFMY 252253Z 26007KT 10SM CLR 29/26 A2983 RMK AO2 LTG DSNT N SLP103 T02940256

Conditions at: KFMY observed 25 September 2017  21:53 UTC
Temperature: 30.6°C (87°F)
Dewpoint: 25.6°C (78°F) [RH = 75%]
Pressure (altimeter): 29.83 inches Hg (1010.2 mb)
[Sea-level pressure: 1010.2 mb]
Winds: from the WSW (250 degrees) at 10 MPH (9 knots; 4.7 m/s)
Visibility: 10 or more miles (16+ km)
Ceiling: at least 12,000 feet AGL
Clouds: few clouds at 7500 feet AGL
Present Weather: no significant weather observed at this time
KFMY 252153Z 25009KT 10SM FEW075 31/26 A2983 RMK AO2 SLP102 T03060256

Conditions at: KFMY observed 25 September 2017  20:53 UTC
Temperature: 30.0°C (86°F)
Dewpoint: 25.0°C (77°F) [RH = 75%]
Pressure (altimeter): 29.81 inches Hg (1009.6 mb)
[Sea-level pressure: 1009.8 mb]
Winds: from the SW (230 degrees) at 3 MPH (3 knots; 1.6 m/s)
Visibility: 10 or more miles (16+ km)
Ceiling: at least 12,000 feet AGL
Clouds: sky clear below 12,000 feet AGL
Present Weather: no significant weather observed at this time
KFMY 252053Z 23003KT 10SM CLR 30/25 A2981 RMK AO2 RAE21 SLP098 P0000 60000 T03000250 56017

Conditions at: KFMY observed 25 September 2017  19:53 UTC
Temperature: 31.1°C (88°F)
Dewpoint: 24.4°C (76°F) [RH = 68%]
Pressure (altimeter): 29.82 inches Hg (1009.9 mb)
[Sea-level pressure: 1010.0 mb]
Winds: from the WNW (290 degrees) at 7 MPH (6 knots; 3.1 m/s)
Visibility: 10 or more miles (16+ km)
Ceiling: 9500 feet AGL
Clouds: few clouds at 8000 feet AGL
broken clouds at 9500 feet AGL
Present Weather: -RA  (light rain)
KFMY 251953Z 29006KT 10SM -RA FEW080 BKN095 31/24 A2982 RMK AO2 RAB52 SLP100 P0000 T03110244

Conditions at: KFMY observed 25 September 2017  18:53 UTC
Temperature: 32.2°C (90°F)
Dewpoint: 23.9°C (75°F) [RH = 62%]
Pressure (altimeter): 29.84 inches Hg (1010.6 mb)
[Sea-level pressure: 1010.6 mb]
Winds: from the WSW (240 degrees) at 7 MPH (6 knots; 3.1 m/s)
Visibility: 10 or more miles (16+ km)
Ceiling: at least 12,000 feet AGL
Clouds: sky clear below 12,000 feet AGL
Present Weather: no significant weather observed at this time
KFMY 251853Z 24006KT 10SM CLR 32/24 A2984 RMK AO2 SLP106 T03220239

Conditions at: KFMY observed 25 September 2017  17:53 UTC
Temperature: 31.1°C (88°F)
Dewpoint: 23.9°C (75°F) [RH = 66%]
Pressure (altimeter): 29.87 inches Hg (1011.6 mb)
[Sea-level pressure: 1011.5 mb]
Winds: calm
Visibility: 10 or more miles (16+ km)
Ceiling: 3900 feet AGL
Clouds: broken clouds at 3900 feet AGL
broken clouds at 4700 feet AGL
Present Weather: no significant weather observed at this time
KFMY 251753Z 00000KT 10SM BKN039 BKN047 31/24 A2987 RMK AO2 SLP115 T03110239 10322 20256 58015

Conditions at: KFMY observed 25 September 2017  16:53 UTC
Temperature: 30.6°C (87°F)
Dewpoint: 23.3°C (74°F) [RH = 65%]
Pressure (altimeter): 29.89 inches Hg (1012.3 mb)
[Sea-level pressure: 1012.4 mb]
Winds: calm
Visibility: 10 or more miles (16+ km)
Ceiling: at least 12,000 feet AGL
Clouds: few clouds at 6000 feet AGL
Present Weather: no significant weather observed at this time
KFMY 251653Z 00000KT 10SM FEW060 31/23 A2989 RMK AO2 SLP124 T03060233

Conditions at: KFMY observed 25 September 2017  15:53 UTC
Temperature: 31.1°C (88°F)
Dewpoint: 24.4°C (76°F) [RH = 68%]
Pressure (altimeter): 29.90 inches Hg (1012.6 mb)
[Sea-level pressure: 1012.5 mb]
Winds: calm
Visibility: 10 or more miles (16+ km)
Ceiling: at least 12,000 feet AGL
Clouds: sky clear below 12,000 feet AGL
Present Weather: no significant weather observed at this time
KFMY 251553Z 00000KT 10SM CLR 31/24 A2990 RMK AO2 SLP125 T03110244

Conditions at: KFMY observed 25 September 2017  14:53 UTC
Temperature: 29.4°C (85°F)
Dewpoint: 24.4°C (76°F) [RH = 75%]
Pressure (altimeter): 29.91 inches Hg (1013.0 mb)
[Sea-level pressure: 1013.0 mb]
Winds: from the E (100 degrees) at 6 MPH (5 knots; 2.6 m/s)
Visibility: 10 or more miles (16+ km)
Ceiling: at least 12,000 feet AGL
Clouds: sky clear below 12,000 feet AGL
Present Weather: no significant weather observed at this time
KFMY 251453Z 10005KT 10SM CLR 29/24 A2991 RMK AO2 SLP130 T02940244 51008